Terminal Aerodrome Forecast
Issued by NWS

Home | Current Version | Previous Version | Text Only | Print | Product List | Glossary On
Versions: 1 2 3 4 5 6 7 8 9 10 11 12 13 14 15 16 17
000
FTUS43 KIND 070500
TAFHUF
TAF
KHUF 070520Z 0706/0806 16005KT P6SM BKN180
     FM071100 20005KT P6SM VCSH SCT025 BKN050
     FM071500 23008KT P6SM -SHRA VCTS OVC020CB
     FM072100 32007KT P6SM -SHRA OVC015=

USA.gov is the U.S. government's official web portal to all federal, state and local government web resources and services.